Time;durP1;ratioP1;P1;durP2;ratioP2;P2;SDS_P1;SDS_P2;PMS_P1;PMS_P2;Temp;Humidity;BMP_temperature;BMP_pressure;BME280_temperature;BME280_humidity;BME280_pressure;Samples;Min_cycle;Max_cycle;Signal;HPM_P1;HPM_P2
2024/01/15 00:00:42;;;;;;;15.95;2.22;;;;;;;;;;5035784;28;20049;-79
2024/01/15 00:03:09;;;;;;;16.85;2.25;;;;;;;;;;5036495;28;20044;-79
2024/01/15 00:05:35;;;;;;;15.25;1.90;;;;;;;;;;5030294;28;20068;-79
2024/01/15 00:08:01;;;;;;;15.13;1.63;;;;;;;;;;5038057;28;20128;-79
2024/01/15 00:10:27;;;;;;;14.73;2.13;;;;;;;;;;5035892;28;20041;-78
2024/01/15 00:12:53;;;;;;;15.32;1.73;;;;;;;;;;5035874;28;20048;-78
2024/01/15 00:15:20;;;;;;;18.90;2.08;;;;;;;;;;5035071;28;20408;-78
2024/01/15 00:17:46;;;;;;;16.30;2.05;;;;;;;;;;5035381;28;20128;-79
2024/01/15 00:20:12;;;;;;;21.98;2.47;;;;;;;;;;5017980;28;20104;-79
2024/01/15 00:22:38;;;;;;;14.27;2.10;;;;;;;;;;5035406;28;20042;-78
2024/01/15 00:25:05;;;;;;;17.55;1.85;;;;;;;;;;5036113;28;20049;-79
2024/01/15 00:27:31;;;;;;;11.95;1.90;;;;;;;;;;5051117;28;20040;-80
2024/01/15 00:29:57;;;;;;;14.50;2.10;;;;;;;;;;5048622;28;20045;-79
2024/01/15 00:32:23;;;;;;;14.52;2.05;;;;;;;;;;5049568;28;20453;-79
2024/01/15 00:34:50;;;;;;;14.23;2.00;;;;;;;;;;5037092;28;20043;-79
2024/01/15 00:37:16;;;;;;;20.55;2.83;;;;;;;;;;5047663;28;20046;-78
2024/01/15 00:39:42;;;;;;;20.23;2.00;;;;;;;;;;5054660;28;20041;-79
2024/01/15 00:42:08;;;;;;;13.05;2.15;;;;;;;;;;5041207;28;20045;-80
2024/01/15 00:44:34;;;;;;;17.23;2.08;;;;;;;;;;5037875;28;20514;-79
2024/01/15 00:47:01;;;;;;;17.90;2.45;;;;;;;;;;5050321;28;20127;-79
2024/01/15 00:49:27;;;;;;;14.48;1.95;;;;;;;;;;5021963;28;20049;-79
2024/01/15 00:51:53;;;;;;;11.27;1.33;;;;;;;;;;5035460;28;20414;-79
2024/01/15 00:54:19;;;;;;;4.60;0.93;;;;;;;;;;5046262;28;20048;-79
2024/01/15 00:56:46;;;;;;;7.75;1.13;;;;;;;;;;5037122;28;20053;-79
2024/01/15 00:59:14;;;;;;;10.48;1.30;;;;;;;;;;5026316;28;20518;-79
2024/01/15 01:01:42;;;;;;;11.60;2.03;;;;;;;;;;5023925;28;20041;-80
2024/01/15 01:04:09;;;;;;;17.73;2.03;;;;;;;;;;5043985;28;20048;-79
2024/01/15 01:06:35;;;;;;;15.77;2.00;;;;;;;;;;5035133;28;20071;-79
2024/01/15 01:09:01;;;;;;;15.93;1.77;;;;;;;;;;5024391;28;20045;-79
2024/01/15 01:11:27;;;;;;;18.70;1.73;;;;;;;;;;5047782;28;20049;-79
2024/01/15 01:13:53;;;;;;;19.23;2.05;;;;;;;;;;5034911;28;20061;-79
2024/01/15 01:16:19;;;;;;;17.40;1.80;;;;;;;;;;5042211;28;20064;-79
2024/01/15 01:18:45;;;;;;;17.83;2.25;;;;;;;;;;5041248;28;20041;-79
2024/01/15 01:21:11;;;;;;;15.73;1.77;;;;;;;;;;5040747;28;20053;-79
2024/01/15 01:23:37;;;;;;;12.75;1.88;;;;;;;;;;5048324;28;20116;-79
2024/01/15 01:26:03;;;;;;;14.63;1.80;;;;;;;;;;5042320;28;20049;-80
2024/01/15 01:28:29;;;;;;;18.48;1.60;;;;;;;;;;5055509;28;20379;-80
2024/01/15 01:30:55;;;;;;;16.95;2.40;;;;;;;;;;5061730;28;20406;-79
2024/01/15 01:33:21;;;;;;;13.88;1.95;;;;;;;;;;5045982;28;20106;-80
2024/01/15 01:35:47;;;;;;;17.45;2.00;;;;;;;;;;5055817;28;20048;-80
2024/01/15 01:38:14;;;;;;;19.85;1.88;;;;;;;;;;5059528;28;20127;-80
2024/01/15 01:40:40;;;;;;;17.17;1.85;;;;;;;;;;5040798;28;20045;-79
2024/01/15 01:43:06;;;;;;;20.85;2.53;;;;;;;;;;5040574;28;20042;-80
2024/01/15 01:45:32;;;;;;;17.45;2.00;;;;;;;;;;5038253;28;20034;-79
2024/01/15 01:47:58;;;;;;;16.08;1.80;;;;;;;;;;5028546;28;20045;-80
2024/01/15 01:50:24;;;;;;;16.33;1.95;;;;;;;;;;5046448;28;20051;-80
2024/01/15 01:52:51;;;;;;;13.45;2.10;;;;;;;;;;5047856;28;20037;-79
2024/01/15 01:55:17;;;;;;;18.42;1.90;;;;;;;;;;5032772;28;20052;-79
2024/01/15 01:57:43;;;;;;;17.42;2.20;;;;;;;;;;5039373;28;20045;-79
2024/01/15 02:00:10;;;;;;;20.42;2.05;;;;;;;;;;5058458;28;20051;-80
2024/01/15 02:02:36;;;;;;;15.63;1.63;;;;;;;;;;5055921;28;20400;-79
2024/01/15 02:05:04;;;;;;;13.77;2.88;;;;;;;;;;5049907;28;20046;-80
2024/01/15 02:07:30;;;;;;;12.07;1.42;;;;;;;;;;5056542;28;20167;-80
2024/01/15 02:09:56;;;;;;;11.90;1.70;;;;;;;;;;5040164;28;20052;-79
2024/01/15 02:12:22;;;;;;;18.40;2.33;;;;;;;;;;5046981;28;20048;-79
2024/01/15 02:14:48;;;;;;;15.45;1.55;;;;;;;;;;5045757;28;20057;-79
2024/01/15 02:17:14;;;;;;;13.70;1.60;;;;;;;;;;5061994;28;20417;-80
2024/01/15 02:19:41;;;;;;;13.90;1.55;;;;;;;;;;5050381;28;20063;-79
2024/01/15 02:22:09;;;;;;;15.50;1.70;;;;;;;;;;5052189;28;20045;-79
2024/01/15 02:24:35;;;;;;;12.00;1.63;;;;;;;;;;5046230;28;20376;-79
2024/01/15 02:27:01;;;;;;;9.95;1.17;;;;;;;;;;5055234;28;20045;-79
2024/01/15 02:29:27;;;;;;;13.75;1.30;;;;;;;;;;5065622;28;20100;-79
2024/01/15 02:31:53;;;;;;;10.05;1.10;;;;;;;;;;5065121;28;20052;-79
2024/01/15 02:34:19;;;;;;;7.90;1.35;;;;;;;;;;5063970;28;20045;-80
2024/01/15 02:36:45;;;;;;;9.65;0.88;;;;;;;;;;5059011;28;20104;-79
2024/01/15 02:39:12;;;;;;;8.43;1.00;;;;;;;;;;5062330;28;20048;-79
2024/01/15 02:41:38;;;;;;;11.30;1.35;;;;;;;;;;5040962;28;20041;-79
2024/01/15 02:44:04;;;;;;;8.30;0.90;;;;;;;;;;5026300;28;20053;-79
2024/01/15 02:46:30;;;;;;;7.35;1.10;;;;;;;;;;5058310;28;20045;-79
2024/01/15 02:48:56;;;;;;;9.43;1.30;;;;;;;;;;5063711;28;20049;-79
2024/01/15 02:51:22;;;;;;;9.63;1.17;;;;;;;;;;5063831;28;20049;-80
2024/01/15 02:53:49;;;;;;;10.32;1.30;;;;;;;;;;5065215;28;20049;-79
2024/01/15 02:56:16;;;;;;;9.07;1.42;;;;;;;;;;5063918;28;20045;-79
2024/01/15 02:58:42;;;;;;;9.63;1.15;;;;;;;;;;5031717;28;20050;-79
2024/01/15 03:01:08;;;;;;;13.30;1.27;;;;;;;;;;5029217;28;20053;-79
2024/01/15 03:03:34;;;;;;;15.43;1.58;;;;;;;;;;5056239;28;20045;-80
2024/01/15 03:06:00;;;;;;;10.75;1.50;;;;;;;;;;5051957;28;20063;-79
2024/01/15 03:08:26;;;;;;;14.68;1.60;;;;;;;;;;5051589;28;20037;-80
2024/01/15 03:10:52;;;;;;;17.58;1.92;;;;;;;;;;5046891;28;20060;-79
2024/01/15 03:13:19;;;;;;;13.52;1.52;;;;;;;;;;5058720;28;20052;-79
2024/01/15 03:15:45;;;;;;;15.48;1.95;;;;;;;;;;5050199;28;20048;-79
2024/01/15 03:18:11;;;;;;;14.25;1.52;;;;;;;;;;5054286;28;20037;-79
2024/01/15 03:20:37;;;;;;;14.50;1.92;;;;;;;;;;5054569;28;20041;-80
2024/01/15 03:23:03;;;;;;;15.57;2.00;;;;;;;;;;5033718;28;20435;-79
2024/01/15 03:25:29;;;;;;;14.43;2.35;;;;;;;;;;5048343;28;20482;-79
2024/01/15 03:27:55;;;;;;;9.77;1.48;;;;;;;;;;5035554;28;20041;-79
2024/01/15 03:30:21;;;;;;;17.75;1.90;;;;;;;;;;5025755;28;20065;-79
2024/01/15 03:32:49;;;;;;;16.80;1.98;;;;;;;;;;5038832;28;20055;-79
2024/01/15 03:35:16;;;;;;;16.70;1.98;;;;;;;;;;5052639;28;20076;-80
2024/01/15 03:37:42;;;;;;;19.20;2.10;;;;;;;;;;5050257;28;20064;-81
2024/01/15 03:40:09;;;;;;;13.40;1.55;;;;;;;;;;5055578;28;20072;-80
2024/01/15 03:42:35;;;;;;;15.25;2.08;;;;;;;;;;5049180;28;20086;-79
2024/01/15 03:45:01;;;;;;;16.65;1.80;;;;;;;;;;5044211;28;20053;-79
2024/01/15 03:47:27;;;;;;;11.32;2.05;;;;;;;;;;5053878;28;20049;-79
2024/01/15 03:49:53;;;;;;;19.48;3.53;;;;;;;;;;5023473;28;20454;-79
2024/01/15 03:52:19;;;;;;;12.25;1.55;;;;;;;;;;5015125;28;20075;-80
2024/01/15 03:54:45;;;;;;;13.23;1.75;;;;;;;;;;5054925;28;20052;-80
2024/01/15 03:57:11;;;;;;;14.23;1.90;;;;;;;;;;5061442;28;20037;-80
2024/01/15 03:59:37;;;;;;;16.17;2.25;;;;;;;;;;5031627;28;20045;-80
2024/01/15 04:02:05;;;;;;;18.83;2.25;;;;;;;;;;5043471;28;20099;-79
2024/01/15 04:04:31;;;;;;;15.32;1.92;;;;;;;;;;5036964;28;20057;-80
2024/01/15 04:06:57;;;;;;;22.80;2.17;;;;;;;;;;5057370;28;20406;-80
2024/01/15 04:09:23;;;;;;;19.95;2.17;;;;;;;;;;5055724;28;20044;-80
2024/01/15 04:11:49;;;;;;;16.67;1.98;;;;;;;;;;5058781;28;20045;-79
2024/01/15 04:14:15;;;;;;;13.07;2.25;;;;;;;;;;5049926;28;20065;-79
2024/01/15 04:16:41;;;;;;;17.92;1.90;;;;;;;;;;5042681;28;20059;-78
2024/01/15 04:19:07;;;;;;;16.95;2.00;;;;;;;;;;5043965;28;20052;-79
2024/01/15 04:21:33;;;;;;;11.88;1.42;;;;;;;;;;5062474;28;20041;-79
2024/01/15 04:24:00;;;;;;;16.50;1.88;;;;;;;;;;5061557;28;20049;-80
2024/01/15 04:26:26;;;;;;;16.90;2.25;;;;;;;;;;5060428;28;20055;-80
2024/01/15 04:28:52;;;;;;;14.40;1.90;;;;;;;;;;5046728;28;20502;-79
2024/01/15 04:31:25;;;;;;;20.48;2.50;;;;;;;;;;5043011;28;20081;-80
2024/01/15 04:33:51;;;;;;;19.58;1.88;;;;;;;;;;5052830;28;20045;-80
2024/01/15 04:36:17;;;;;;;15.38;1.73;;;;;;;;;;5052622;28;20541;-80
2024/01/15 04:38:43;;;;;;;11.75;1.58;;;;;;;;;;5050577;28;20092;-79
2024/01/15 04:41:13;;;;;;;19.17;1.95;;;;;;;;;;5045648;28;20041;-79
2024/01/15 04:43:39;;;;;;;11.77;1.77;;;;;;;;;;5047859;28;20045;-80
2024/01/15 04:46:08;;;;;;;11.65;1.77;;;;;;;;;;5042589;28;20049;-79
2024/01/15 04:48:35;;;;;;;14.50;1.33;;;;;;;;;;5029199;28;20056;-80
2024/01/15 04:51:01;;;;;;;13.55;1.70;;;;;;;;;;5044047;28;20485;-79
2024/01/15 04:53:27;;;;;;;13.18;1.77;;;;;;;;;;5060566;28;20064;-80
2024/01/15 04:55:53;;;;;;;14.82;2.05;;;;;;;;;;5061914;28;20174;-79
2024/01/15 04:58:19;;;;;;;13.63;1.55;;;;;;;;;;5040933;28;20064;-80
2024/01/15 05:00:45;;;;;;;13.50;1.50;;;;;;;;;;5060915;28;20047;-79
2024/01/15 05:03:11;;;;;;;10.50;1.35;;;;;;;;;;5033147;28;20077;-80
2024/01/15 05:05:37;;;;;;;12.30;1.50;;;;;;;;;;5039380;28;20056;-79
2024/01/15 05:08:03;;;;;;;15.43;1.92;;;;;;;;;;5027877;28;20067;-79
2024/01/15 05:10:29;;;;;;;11.57;1.83;;;;;;;;;;5053855;28;20099;-79
2024/01/15 05:12:55;;;;;;;11.55;1.40;;;;;;;;;;5053424;28;20077;-80
2024/01/15 05:15:21;;;;;;;8.88;1.48;;;;;;;;;;5055900;28;20045;-80
2024/01/15 05:17:47;;;;;;;9.02;1.33;;;;;;;;;;5044939;28;20097;-78
2024/01/15 05:20:14;;;;;;;11.25;1.30;;;;;;;;;;5051745;28;20064;-78
2024/01/15 05:22:41;;;;;;;14.13;1.38;;;;;;;;;;5053332;28;20063;-79
2024/01/15 05:25:09;;;;;;;10.55;1.13;;;;;;;;;;5055338;28;20071;-79
2024/01/15 05:27:35;;;;;;;8.98;0.90;;;;;;;;;;5039567;28;20092;-80
2024/01/15 05:30:01;;;;;;;15.05;1.30;;;;;;;;;;5016732;28;20054;-79
2024/01/15 05:32:27;;;;;;;5.30;1.13;;;;;;;;;;5031493;28;20593;-78
2024/01/15 05:34:53;;;;;;;6.68;1.10;;;;;;;;;;5049913;28;20437;-79
2024/01/15 05:37:19;;;;;;;11.73;1.25;;;;;;;;;;5048666;28;20402;-79
2024/01/15 05:39:45;;;;;;;9.63;1.40;;;;;;;;;;5040684;28;20049;-79
2024/01/15 05:42:11;;;;;;;9.15;1.38;;;;;;;;;;5050210;28;20045;-78
2024/01/15 05:44:37;;;;;;;7.53;1.00;;;;;;;;;;5047084;28;20053;-79
2024/01/15 05:47:04;;;;;;;8.63;1.50;;;;;;;;;;5045421;28;20052;-79
2024/01/15 05:49:30;;;;;;;7.85;1.00;;;;;;;;;;5044982;28;20059;-79
2024/01/15 05:51:56;;;;;;;9.15;1.00;;;;;;;;;;5041369;28;20049;-79
2024/01/15 05:54:22;;;;;;;17.55;1.38;;;;;;;;;;5041589;28;20049;-79
2024/01/15 05:56:48;;;;;;;19.05;1.83;;;;;;;;;;5021677;28;20045;-79
2024/01/15 05:59:14;;;;;;;14.48;1.85;;;;;;;;;;5050724;28;20055;-79
2024/01/15 06:01:40;;;;;;;11.27;1.63;;;;;;;;;;5031078;28;20561;-79
2024/01/15 06:04:06;;;;;;;11.43;1.65;;;;;;;;;;5015672;28;20499;-79
2024/01/15 06:06:32;;;;;;;14.15;1.48;;;;;;;;;;5032670;28;20049;-78
2024/01/15 06:09:04;;;;;;;13.05;1.85;;;;;;;;;;5032829;28;20399;-79
2024/01/15 06:11:31;;;;;;;18.05;1.75;;;;;;;;;;5047627;28;20107;-78
2024/01/15 06:13:57;;;;;;;16.33;1.70;;;;;;;;;;5033191;28;20053;-79
2024/01/15 06:16:24;;;;;;;12.27;1.40;;;;;;;;;;5044529;28;20091;-79
2024/01/15 06:18:50;;;;;;;9.40;1.20;;;;;;;;;;5046859;28;20491;-79
2024/01/15 06:21:17;;;;;;;9.48;1.55;;;;;;;;;;5021686;28;20042;-79
2024/01/15 06:23:43;;;;;;;16.30;1.60;;;;;;;;;;5028897;28;20045;-79
2024/01/15 06:26:09;;;;;;;15.30;1.95;;;;;;;;;;5032970;28;20049;-79
2024/01/15 06:28:35;;;;;;;10.15;1.60;;;;;;;;;;5032295;28;20100;-78
2024/01/15 06:31:01;;;;;;;13.27;1.70;;;;;;;;;;5015240;28;20055;-79
2024/01/15 06:33:27;;;;;;;15.30;2.92;;;;;;;;;;5009235;28;20055;-79
2024/01/15 06:35:53;;;;;;;17.20;1.73;;;;;;;;;;5052240;28;20048;-79
2024/01/15 06:38:19;;;;;;;16.35;2.90;;;;;;;;;;5024148;28;20104;-80
2024/01/15 06:40:48;;;;;;;8.70;1.45;;;;;;;;;;5035638;28;20571;-79
2024/01/15 06:43:14;;;;;;;13.90;1.70;;;;;;;;;;5020166;28;20042;-79
2024/01/15 06:45:40;;;;;;;11.32;2.35;;;;;;;;;;5048598;28;20041;-79
2024/01/15 06:48:10;;;;;;;10.75;1.50;;;;;;;;;;5033310;28;20042;-79
2024/01/15 06:50:36;;;;;;;14.85;1.75;;;;;;;;;;5034327;28;20042;-80
2024/01/15 06:53:02;;;;;;;14.23;1.63;;;;;;;;;;5044120;28;20037;-79
2024/01/15 06:55:28;;;;;;;13.15;1.65;;;;;;;;;;5037758;28;20486;-79
2024/01/15 06:57:54;;;;;;;14.38;2.40;;;;;;;;;;5034419;28;20050;-79
2024/01/15 07:00:20;;;;;;;12.13;1.88;;;;;;;;;;5014678;28;20034;-79
2024/01/15 07:02:46;;;;;;;15.77;2.05;;;;;;;;;;5008092;28;20488;-79
2024/01/15 07:05:12;;;;;;;14.65;1.85;;;;;;;;;;5040181;28;20122;-80
2024/01/15 07:07:38;;;;;;;10.93;1.38;;;;;;;;;;5056475;28;20041;-79
2024/01/15 07:10:06;;;;;;;20.10;1.88;;;;;;;;;;5058577;28;20098;-79
2024/01/15 07:12:32;;;;;;;12.52;1.52;;;;;;;;;;5058450;28;20071;-79
2024/01/15 07:14:58;;;;;;;17.67;2.13;;;;;;;;;;5046117;28;20057;-79
2024/01/15 07:17:24;;;;;;;13.27;1.60;;;;;;;;;;5033998;28;20053;-79
2024/01/15 07:19:50;;;;;;;9.55;1.50;;;;;;;;;;5052709;28;20041;-78
2024/01/15 07:22:17;;;;;;;14.55;1.70;;;;;;;;;;5057703;28;20095;-79
2024/01/15 07:24:43;;;;;;;13.95;1.83;;;;;;;;;;5037810;28;20136;-79
2024/01/15 07:27:10;;;;;;;12.25;1.70;;;;;;;;;;5025481;28;20045;-79
2024/01/15 07:29:37;;;;;;;13.60;1.48;;;;;;;;;;5019571;28;20578;-79
2024/01/15 07:32:03;;;;;;;15.85;1.92;;;;;;;;;;5028416;28;20052;-80
2024/01/15 07:34:30;;;;;;;16.35;2.15;;;;;;;;;;5050885;28;20066;-79
2024/01/15 07:36:56;;;;;;;22.40;2.15;;;;;;;;;;5042605;28;20527;-79
2024/01/15 07:39:23;;;;;;;15.23;2.28;;;;;;;;;;5034629;28;20056;-79
2024/01/15 07:41:49;;;;;;;8.80;1.58;;;;;;;;;;5034620;28;20037;-79
2024/01/15 07:44:15;;;;;;;13.00;2.08;;;;;;;;;;5034818;28;20049;-79
2024/01/15 07:46:45;;;;;;;13.73;1.65;;;;;;;;;;5035958;28;20046;-79
2024/01/15 07:49:11;;;;;;;14.88;2.30;;;;;;;;;;5036661;28;20046;-79
2024/01/15 07:51:37;;;;;;;21.15;2.65;;;;;;;;;;5036510;28;20128;-78
2024/01/15 07:54:03;;;;;;;17.98;2.30;;;;;;;;;;5036240;28;20049;-78
2024/01/15 07:56:29;;;;;;;16.80;2.83;;;;;;;;;;5035784;28;20046;-79
2024/01/15 07:58:56;;;;;;;21.85;2.25;;;;;;;;;;5036071;28;20061;-79
2024/01/15 08:01:22;;;;;;;17.50;1.90;;;;;;;;;;5036258;28;20041;-79
2024/01/15 08:03:49;;;;;;;19.67;2.20;;;;;;;;;;5014373;28;20042;-79
2024/01/15 08:06:15;;;;;;;14.40;2.10;;;;;;;;;;5002558;28;20049;-78
2024/01/15 08:08:41;;;;;;;17.40;2.00;;;;;;;;;;5034321;28;20060;-80
2024/01/15 08:11:07;;;;;;;22.63;2.45;;;;;;;;;;5035712;28;20053;-79
2024/01/15 08:13:33;;;;;;;17.55;2.05;;;;;;;;;;5054149;28;20057;-79
2024/01/15 08:15:59;;;;;;;13.77;1.92;;;;;;;;;;5055037;28;20114;-79
2024/01/15 08:18:25;;;;;;;15.18;2.30;;;;;;;;;;5057077;28;20053;-78
2024/01/15 08:20:52;;;;;;;17.60;2.45;;;;;;;;;;5058334;28;20057;-80
2024/01/15 08:23:18;;;;;;;12.13;2.05;;;;;;;;;;5055793;28;20041;-78
2024/01/15 08:25:44;;;;;;;15.52;2.00;;;;;;;;;;5032915;28;20346;-79
2024/01/15 08:28:10;;;;;;;15.88;1.50;;;;;;;;;;5023732;28;20049;-80
2024/01/15 08:30:36;;;;;;;17.63;2.58;;;;;;;;;;5037939;28;20049;-78
2024/01/15 08:33:02;;;;;;;12.10;1.88;;;;;;;;;;5051993;28;20075;-80
2024/01/15 08:35:28;;;;;;;13.18;1.90;;;;;;;;;;5041672;28;20132;-79
2024/01/15 08:37:54;;;;;;;14.00;1.60;;;;;;;;;;5020967;28;20053;-80
2024/01/15 08:40:20;;;;;;;15.98;1.80;;;;;;;;;;5039778;28;20058;-80
2024/01/15 08:42:46;;;;;;;14.07;1.88;;;;;;;;;;5021710;28;20041;-79
2024/01/15 08:45:13;;;;;;;15.65;1.75;;;;;;;;;;5020931;28;20057;-79
2024/01/15 08:47:39;;;;;;;13.18;2.30;;;;;;;;;;5039361;28;20045;-79
2024/01/15 08:50:05;;;;;;;15.32;2.28;;;;;;;;;;5039031;28;20046;-80
2024/01/15 08:52:31;;;;;;;19.60;2.83;;;;;;;;;;5039263;28;20502;-80
2024/01/15 08:54:58;;;;;;;14.85;2.45;;;;;;;;;;5040193;28;20071;-79
2024/01/15 08:57:24;;;;;;;12.70;2.10;;;;;;;;;;5038877;28;20050;-79
2024/01/15 08:59:51;;;;;;;15.20;2.17;;;;;;;;;;5038916;28;20072;-80
2024/01/15 09:02:17;;;;;;;17.92;2.10;;;;;;;;;;5039081;28;20057;-79
2024/01/15 09:04:43;;;;;;;11.80;2.08;;;;;;;;;;5017394;28;20126;-79
2024/01/15 09:07:09;;;;;;;19.65;2.20;;;;;;;;;;5019786;28;20041;-80
2024/01/15 09:09:35;;;;;;;15.38;2.00;;;;;;;;;;5019284;28;20107;-79
2024/01/15 09:12:02;;;;;;;18.15;2.30;;;;;;;;;;5033116;28;20049;-80
2024/01/15 09:14:29;;;;;;;17.20;2.25;;;;;;;;;;5038968;28;20392;-79
2024/01/15 09:16:56;;;;;;;15.82;2.13;;;;;;;;;;5044014;28;20045;-80
2024/01/15 09:19:22;;;;;;;16.35;2.22;;;;;;;;;;5054975;28;20043;-80
2024/01/15 09:21:48;;;;;;;17.27;2.10;;;;;;;;;;5020070;28;20033;-79
2024/01/15 09:24:14;;;;;;;15.50;1.88;;;;;;;;;;5037839;28;20041;-80
2024/01/15 09:26:40;;;;;;;14.25;2.08;;;;;;;;;;5039136;28;20049;-79
2024/01/15 09:29:06;;;;;;;16.67;2.28;;;;;;;;;;5039338;28;20068;-79
2024/01/15 09:31:32;;;;;;;21.25;2.60;;;;;;;;;;5039630;28;20049;-79
2024/01/15 09:34:00;;;;;;;17.48;2.35;;;;;;;;;;5040256;28;20046;-80
2024/01/15 09:36:26;;;;;;;12.10;1.92;;;;;;;;;;5039386;28;20053;-80
2024/01/15 09:38:52;;;;;;;18.05;2.03;;;;;;;;;;5039293;28;20046;-80
2024/01/15 09:41:18;;;;;;;9.95;1.48;;;;;;;;;;5039837;28;20064;-80
2024/01/15 09:43:45;;;;;;;7.40;1.27;;;;;;;;;;5046826;28;20040;-80
2024/01/15 09:46:12;;;;;;;9.98;1.58;;;;;;;;;;5045331;28;20049;-79
2024/01/15 09:48:38;;;;;;;9.20;1.60;;;;;;;;;;5039414;28;20045;-79
2024/01/15 09:51:07;;;;;;;12.35;1.80;;;;;;;;;;5039122;28;20341;-79
2024/01/15 09:53:34;;;;;;;14.50;1.85;;;;;;;;;;5036754;28;20383;-79
2024/01/15 09:56:00;;;;;;;7.82;1.38;;;;;;;;;;5035151;28;20422;-80
2024/01/15 09:58:27;;;;;;;11.80;1.70;;;;;;;;;;5016668;28;20155;-80
2024/01/15 10:00:53;;;;;;;12.98;1.52;;;;;;;;;;5034207;28;20050;-79
2024/01/15 10:03:21;;;;;;;12.93;1.40;;;;;;;;;;5037541;28;20041;-80
2024/01/15 10:05:47;;;;;;;13.95;2.03;;;;;;;;;;5039596;28;20075;-80
2024/01/15 10:08:14;;;;;;;13.35;2.78;;;;;;;;;;5040293;28;20056;-81
2024/01/15 10:10:40;;;;;;;15.75;2.33;;;;;;;;;;5036592;28;20049;-80
2024/01/15 10:13:07;;;;;;;15.40;2.17;;;;;;;;;;5039591;28;20109;-80
2024/01/15 10:15:36;;;;;;;11.45;1.80;;;;;;;;;;5020448;28;20102;-80
2024/01/15 10:18:03;;;;;;;10.35;2.05;;;;;;;;;;5039917;28;20060;-80
2024/01/15 10:20:29;;;;;;;16.80;2.17;;;;;;;;;;5038074;28;20065;-79
2024/01/15 10:22:56;;;;;;;19.25;2.90;;;;;;;;;;5040043;28;20041;-80
2024/01/15 10:25:25;;;;;;;16.38;2.50;;;;;;;;;;5040039;28;20107;-79
2024/01/15 10:28:02;;;;;;;12.70;1.80;;;;;;;;;;5034633;28;20125;-79
2024/01/15 10:30:28;;;;;;;13.02;1.83;;;;;;;;;;5032197;28;20195;-81
2024/01/15 10:33:04;;;;;;;15.15;2.00;;;;;;;;;;5039954;28;20061;-80
2024/01/15 10:35:31;;;;;;;13.95;2.08;;;;;;;;;;5039285;28;20046;-79
2024/01/15 10:37:57;;;;;;;16.48;2.20;;;;;;;;;;5040224;28;20069;-80
2024/01/15 10:40:24;;;;;;;13.55;2.13;;;;;;;;;;5039187;28;20064;-81
2024/01/15 10:42:50;;;;;;;16.42;2.67;;;;;;;;;;5042012;28;20091;-80
2024/01/15 10:45:17;;;;;;;12.27;1.73;;;;;;;;;;5040404;28;20037;-80
2024/01/15 10:47:43;;;;;;;14.45;1.85;;;;;;;;;;5039426;28;20049;-80
2024/01/15 10:50:10;;;;;;;12.50;1.70;;;;;;;;;;5039200;28;20466;-80
2024/01/15 10:52:37;;;;;;;17.63;1.80;;;;;;;;;;5040870;28;20479;-80
2024/01/15 10:55:06;;;;;;;18.55;2.20;;;;;;;;;;5038016;28;20057;-80
2024/01/15 10:57:32;;;;;;;18.15;1.80;;;;;;;;;;5024568;28;20057;-81
2024/01/15 10:59:58;;;;;;;16.73;1.92;;;;;;;;;;5022672;28;20060;-81
2024/01/15 11:02:25;;;;;;;13.13;2.17;;;;;;;;;;5039906;28;20049;-81
2024/01/15 11:04:51;;;;;;;10.68;1.30;;;;;;;;;;5042835;28;20114;-80
2024/01/15 11:07:18;;;;;;;9.68;1.35;;;;;;;;;;5038699;28;20054;-80
2024/01/15 11:09:44;;;;;;;9.52;1.35;;;;;;;;;;5041905;28;21046;-81
2024/01/15 11:12:11;;;;;;;12.00;1.58;;;;;;;;;;5044658;28;20048;-80
2024/01/15 11:14:44;;;;;;;12.75;1.50;;;;;;;;;;5052030;28;20056;-81
2024/01/15 11:17:11;;;;;;;11.43;1.30;;;;;;;;;;5012119;28;20057;-80
2024/01/15 11:19:51;;;;;;;7.82;1.15;;;;;;;;;;5041763;28;20053;-80
2024/01/15 11:22:32;;;;;;;10.88;1.20;;;;;;;;;;5041781;28;20041;-81
2024/01/15 11:25:02;;;;;;;12.63;1.25;;;;;;;;;;5035829;28;20046;-80
2024/01/15 11:27:42;;;;;;;7.53;1.02;;;;;;;;;;5038580;28;20049;-80
2024/01/15 11:30:10;;;;;;;7.40;1.40;;;;;;;;;;5030690;28;20057;-80
2024/01/15 11:32:36;;;;;;;7.45;1.00;;;;;;;;;;5047704;28;20085;-80
2024/01/15 11:35:03;;;;;;;6.35;1.00;;;;;;;;;;5042419;28;20046;-80
2024/01/15 11:37:30;;;;;;;5.75;1.10;;;;;;;;;;5039553;28;20049;-80
2024/01/15 11:40:01;;;;;;;10.20;1.20;;;;;;;;;;5041102;28;20046;-80
2024/01/15 11:42:27;;;;;;;7.43;1.17;;;;;;;;;;5023064;28;20064;-80
2024/01/15 11:44:54;;;;;;;7.45;1.27;;;;;;;;;;5041583;28;20100;-80
2024/01/15 11:47:31;;;;;;;6.93;0.90;;;;;;;;;;5041875;28;20395;-80
2024/01/15 11:50:11;;;;;;;6.03;1.10;;;;;;;;;;5039210;28;20046;-80
2024/01/15 11:52:38;;;;;;;8.88;1.08;;;;;;;;;;5040436;28;20508;-80
2024/01/15 11:55:16;;;;;;;7.43;1.02;;;;;;;;;;5036236;28;20042;-81
2024/01/15 11:57:46;;;;;;;8.90;0.98;;;;;;;;;;5038774;28;20048;-80
2024/01/15 12:00:13;;;;;;;6.50;0.90;;;;;;;;;;5040202;28;20176;-80
2024/01/15 12:02:46;;;;;;;7.47;0.93;;;;;;;;;;5049503;28;20060;-80
2024/01/15 12:05:12;;;;;;;5.40;0.88;;;;;;;;;;5043459;28;20183;-81
2024/01/15 12:07:41;;;;;;;6.40;0.68;;;;;;;;;;5044430;28;20505;-80
2024/01/15 12:10:20;;;;;;;3.80;0.70;;;;;;;;;;5061016;28;20101;-81
2024/01/15 12:12:53;;;;;;;3.58;1.00;;;;;;;;;;5034780;28;20049;-80
2024/01/15 12:15:19;;;;;;;5.18;0.90;;;;;;;;;;5047904;28;20056;-80
2024/01/15 12:17:47;;;;;;;6.53;0.70;;;;;;;;;;5032721;28;20040;-80
2024/01/15 12:20:13;;;;;;;4.03;0.85;;;;;;;;;;5037783;28;20045;-80
2024/01/15 12:22:39;;;;;;;4.93;0.70;;;;;;;;;;5045288;28;20501;-80
2024/01/15 12:25:06;;;;;;;4.80;0.55;;;;;;;;;;5023202;28;20052;-80
2024/01/15 12:27:32;;;;;;;5.70;0.50;;;;;;;;;;5040352;28;20057;-80
2024/01/15 12:29:59;;;;;;;4.88;0.57;;;;;;;;;;5037763;28;20536;-81
2024/01/15 12:32:25;;;;;;;5.40;0.60;;;;;;;;;;5039701;28;20049;-80
2024/01/15 12:34:51;;;;;;;3.55;0.60;;;;;;;;;;5038366;28;20049;-80
2024/01/15 12:37:21;;;;;;;0.82;0.40;;;;;;;;;;5038592;28;20093;-80
2024/01/15 12:39:48;;;;;;;1.85;0.40;;;;;;;;;;5036060;28;20206;-80
2024/01/15 12:42:17;;;;;;;1.88;0.40;;;;;;;;;;5036304;28;20042;-80
2024/01/15 12:44:45;;;;;;;1.15;0.30;;;;;;;;;;5037752;28;20071;-80
2024/01/15 12:47:11;;;;;;;3.70;0.63;;;;;;;;;;5038320;28;20045;-81
2024/01/15 12:49:37;;;;;;;2.25;0.50;;;;;;;;;;5038081;28;20095;-80
2024/01/15 12:52:04;;;;;;;3.33;0.63;;;;;;;;;;5019397;28;20467;-80
2024/01/15 12:54:30;;;;;;;3.70;0.80;;;;;;;;;;5036205;28;20043;-79
2024/01/15 12:56:56;;;;;;;3.97;0.70;;;;;;;;;;5035724;28;20052;-80
2024/01/15 12:59:22;;;;;;;3.50;0.73;;;;;;;;;;5035202;28;20530;-80
2024/01/15 13:01:48;;;;;;;8.68;0.90;;;;;;;;;;5036723;28;20042;-81
2024/01/15 13:04:23;;;;;;;5.45;0.80;;;;;;;;;;5029763;28;20065;-80
2024/01/15 13:06:50;;;;;;;5.70;0.80;;;;;;;;;;5037061;28;20124;-80
2024/01/15 13:09:17;;;;;;;5.32;0.85;;;;;;;;;;5036864;28;20041;-80
2024/01/15 13:11:43;;;;;;;5.50;1.00;;;;;;;;;;5036343;28;20049;-80
2024/01/15 13:14:09;;;;;;;6.68;1.17;;;;;;;;;;5036045;28;20050;-80
2024/01/15 13:16:35;;;;;;;6.63;1.08;;;;;;;;;;5037678;28;20045;-80
2024/01/15 13:19:03;;;;;;;4.93;0.90;;;;;;;;;;5035369;28;20061;-80
2024/01/15 13:21:29;;;;;;;7.65;1.30;;;;;;;;;;5035220;28;20077;-80
2024/01/15 13:23:55;;;;;;;7.03;1.10;;;;;;;;;;5034961;28;20037;-80
2024/01/15 13:26:21;;;;;;;7.47;0.85;;;;;;;;;;5034489;28;20057;-80
2024/01/15 13:28:47;;;;;;;8.23;1.20;;;;;;;;;;5035459;28;20049;-80
2024/01/15 13:31:14;;;;;;;9.18;1.42;;;;;;;;;;5034007;28;20148;-81
2024/01/15 13:33:40;;;;;;;8.95;1.40;;;;;;;;;;5038320;28;20045;-81
2024/01/15 13:36:10;;;;;;;10.45;1.60;;;;;;;;;;5039084;28;20055;-80
2024/01/15 13:38:37;;;;;;;8.90;1.40;;;;;;;;;;5039347;28;20053;-81
2024/01/15 13:41:03;;;;;;;8.88;1.40;;;;;;;;;;5036921;28;20127;-80
2024/01/15 13:43:30;;;;;;;9.00;1.20;;;;;;;;;;5039345;28;20445;-80
2024/01/15 13:45:58;;;;;;;9.43;1.27;;;;;;;;;;5059902;28;20124;-80
2024/01/15 13:48:24;;;;;;;9.63;1.55;;;;;;;;;;5039031;28;20049;-80
2024/01/15 13:50:50;;;;;;;10.63;1.73;;;;;;;;;;5018829;28;20045;-81
2024/01/15 13:53:16;;;;;;;9.90;1.45;;;;;;;;;;5038937;28;20052;-80
2024/01/15 13:55:43;;;;;;;12.07;1.70;;;;;;;;;;5021694;28;20046;-80
2024/01/15 13:58:09;;;;;;;9.13;1.45;;;;;;;;;;5036960;28;20045;-81
2024/01/15 14:00:35;;;;;;;11.32;1.35;;;;;;;;;;5038313;28;20506;-81
2024/01/15 14:03:01;;;;;;;10.65;1.55;;;;;;;;;;5026156;28;20056;-80
2024/01/15 14:05:27;;;;;;;8.93;1.27;;;;;;;;;;5028053;28;20065;-80
2024/01/15 14:07:53;;;;;;;10.63;1.77;;;;;;;;;;5038172;28;20045;-80
2024/01/15 14:10:20;;;;;;;7.15;1.20;;;;;;;;;;5037811;28;20050;-81
2024/01/15 14:12:46;;;;;;;9.48;1.30;;;;;;;;;;5038558;28;20118;-81
2024/01/15 14:15:12;;;;;;;8.00;1.55;;;;;;;;;;5038000;28;20107;-81
2024/01/15 14:17:39;;;;;;;12.77;1.33;;;;;;;;;;5038101;28;20076;-81
2024/01/15 14:20:06;;;;;;;9.15;1.40;;;;;;;;;;5035988;28;20497;-80
2024/01/15 14:22:32;;;;;;;9.73;1.17;;;;;;;;;;5036604;28;20056;-80
2024/01/15 14:24:58;;;;;;;9.18;1.13;;;;;;;;;;5015726;28;20050;-81
2024/01/15 14:27:24;;;;;;;9.80;1.35;;;;;;;;;;5036176;28;20047;-81
2024/01/15 14:29:50;;;;;;;12.63;1.20;;;;;;;;;;5022392;28;20045;-80